createdAt,value
2022-12-23T00:00:28.634Z,90.54
2022-12-23T00:02:55.480Z,91.08
2022-12-23T00:05:22.660Z,91.59
2022-12-23T00:07:49.291Z,91.18
2022-12-23T00:10:15.967Z,90.43
2022-12-23T00:13:01.464Z,90.07
2022-12-23T00:15:28.139Z,90.08
2022-12-23T00:17:54.764Z,91.14
2022-12-23T00:20:21.535Z,90.71
2022-12-23T00:23:06.062Z,92.64
2022-12-23T00:25:40.960Z,92.78
2022-12-23T00:28:10.201Z,93.95
2022-12-23T00:30:57.148Z,93.34
2022-12-23T00:33:26.408Z,92.58
2022-12-23T00:35:53.364Z,91.44
2022-12-23T00:38:39.569Z,91.06
2022-12-23T00:41:28.897Z,91.90
2022-12-23T00:43:55.605Z,91.12
2022-12-23T00:46:22.222Z,91.74
2022-12-23T00:49:07.797Z,91.21
2022-12-23T00:51:34.472Z,90.91
2022-12-23T00:54:01.545Z,91.03
2022-12-23T00:56:28.388Z,90.79
2022-12-23T00:58:55.044Z,90.89
2022-12-23T01:01:41.042Z,91.43
2022-12-23T01:04:27.790Z,91.23
2022-12-23T01:06:54.755Z,90.64
2022-12-23T01:09:21.369Z,90.61
2022-12-23T01:11:48.089Z,90.36
2022-12-23T01:14:14.761Z,91.04
2022-12-23T01:16:42.023Z,92.38
2022-12-23T01:19:08.785Z,92.60
2022-12-23T01:21:36.085Z,92.64
2022-12-23T01:24:02.645Z,92.91
2022-12-23T01:26:29.300Z,93.19
2022-12-23T01:28:57.487Z,92.27
2022-12-23T01:31:26.247Z,91.42
2022-12-23T01:33:53.666Z,90.52
2022-12-23T01:36:21.220Z,90.53
2022-12-23T01:38:48.307Z,90.78
2022-12-23T01:41:37.162Z,90.42
2022-12-23T01:44:24.069Z,90.78
2022-12-23T01:46:51.110Z,91.01
2022-12-23T01:49:17.791Z,91.71
2022-12-23T01:51:44.451Z,91.49
2022-12-23T01:54:11.071Z,92.28
2022-12-23T01:56:39.872Z,91.45
2022-12-23T01:59:10.033Z,90.89
2022-12-23T02:01:55.755Z,90.15
2022-12-23T02:04:25.635Z,90.62
2022-12-23T02:07:11.052Z,90.33
2022-12-23T02:09:40.016Z,89.93
2022-12-23T02:12:30.686Z,89.99
2022-12-23T02:15:42.639Z,89.35
2022-12-23T02:18:40.972Z,88.61
2022-12-23T02:21:23.035Z,88.63
2022-12-23T02:24:08.639Z,88.94
2022-12-23T02:27:02.039Z,88.94
2022-12-23T02:30:02.735Z,89.27
2022-12-23T02:32:41.523Z,89.87
2022-12-23T02:35:13.498Z,89.81
2022-12-23T02:38:11.277Z,89.90
2022-12-23T02:40:57.184Z,90.35
2022-12-23T02:43:32.605Z,90.73
2022-12-23T02:46:07.201Z,89.35
2022-12-23T02:48:44.789Z,89.00
2022-12-23T02:51:14.548Z,88.05
2022-12-23T02:53:56.897Z,89.03
2022-12-23T02:56:26.095Z,89.49
2022-12-23T02:59:05.160Z,89.77
2022-12-23T03:01:34.723Z,88.79
2022-12-23T03:04:01.776Z,87.72
2022-12-23T03:06:28.341Z,88.49
2022-12-23T03:08:58.360Z,88.51
2022-12-23T03:12:14.179Z,88.83
2022-12-23T03:14:59.613Z,89.13
2022-12-23T03:17:41.793Z,90.44
2022-12-23T03:20:21.066Z,90.34
2022-12-23T03:22:59.548Z,88.75
2022-12-23T03:25:34.454Z,88.37
2022-12-23T03:28:48.972Z,89.29
2022-12-23T03:31:23.226Z,90.23
2022-12-23T03:33:56.519Z,90.84
2022-12-23T03:36:29.208Z,89.88
2022-12-23T03:38:57.022Z,90.18
2022-12-23T03:41:41.543Z,87.63
2022-12-23T03:44:19.076Z,88.72
2022-12-23T03:47:03.413Z,89.23
2022-12-23T03:49:42.866Z,89.24
2022-12-23T03:52:21.020Z,87.83
2022-12-23T03:55:01.835Z,87.13
2022-12-23T03:57:37.019Z,87.60
2022-12-23T04:00:04.477Z,88.43
2022-12-23T04:02:43.526Z,87.84
2022-12-23T04:05:29.885Z,87.70
2022-12-23T04:08:19.484Z,86.56
2022-12-23T04:10:46.938Z,85.47
2022-12-23T04:13:13.703Z,85.40
2022-12-23T04:15:42.015Z,86.93
2022-12-23T04:18:10.301Z,86.49
2022-12-23T04:20:37.628Z,86.59
2022-12-23T04:23:04.842Z,87.37
2022-12-23T04:25:31.638Z,88.04
2022-12-23T04:27:58.251Z,87.79
2022-12-23T04:30:29.705Z,85.74
2022-12-23T04:33:00.311Z,87.00
2022-12-23T04:35:26.914Z,86.00
2022-12-23T04:37:53.643Z,87.71
2022-12-23T04:40:20.243Z,88.71
2022-12-23T04:42:46.928Z,89.76
2022-12-23T04:45:13.646Z,88.46
2022-12-23T04:47:40.717Z,89.01
2022-12-23T04:50:08.445Z,87.14
2022-12-23T04:52:35.142Z,85.97
2022-12-23T04:55:01.747Z,86.67
2022-12-23T04:57:28.517Z,87.71
2022-12-23T04:59:55.101Z,88.39
2022-12-23T05:02:21.816Z,87.17
2022-12-23T05:04:48.498Z,87.45
2022-12-23T05:07:15.228Z,87.87
2022-12-23T05:09:41.817Z,87.31
2022-12-23T05:12:08.550Z,87.32
2022-12-23T05:14:35.435Z,87.68
2022-12-23T05:17:07.110Z,87.83
2022-12-23T05:19:34.598Z,86.54
2022-12-23T05:22:01.201Z,86.53
2022-12-23T05:24:27.871Z,87.45
2022-12-23T05:26:59.749Z,86.30
2022-12-23T05:29:27.600Z,86.84
2022-12-23T05:31:54.401Z,85.35
2022-12-23T05:34:21.502Z,85.35
2022-12-23T05:36:48.133Z,86.34
2022-12-23T05:39:14.788Z,85.84
2022-12-23T05:41:41.363Z,87.15
2022-12-23T05:44:08.012Z,87.02
2022-12-23T05:46:34.860Z,87.60
2022-12-23T05:49:01.676Z,87.66
2022-12-23T05:51:28.372Z,87.67
2022-12-23T05:53:55.148Z,87.57
2022-12-23T05:56:21.747Z,88.49
2022-12-23T05:58:48.330Z,87.21
2022-12-23T06:01:14.880Z,86.47
2022-12-23T06:03:41.775Z,86.45
2022-12-23T06:06:08.543Z,86.99
2022-12-23T06:08:35.186Z,86.87
2022-12-23T06:11:05.551Z,86.68
2022-12-23T06:13:32.281Z,86.38
2022-12-23T06:15:59.075Z,87.32
2022-12-23T06:18:25.839Z,87.45
2022-12-23T06:20:52.428Z,85.64
2022-12-23T06:23:19.056Z,85.76
2022-12-23T06:25:45.775Z,86.87
2022-12-23T06:28:12.680Z,87.47
2022-12-23T06:30:39.227Z,87.92
2022-12-23T06:33:05.872Z,87.83
2022-12-23T06:35:32.531Z,86.88
2022-12-23T06:37:59.189Z,87.09
2022-12-23T06:40:25.861Z,86.99
2022-12-23T06:42:52.542Z,87.18
2022-12-23T06:45:19.231Z,86.52
2022-12-23T06:47:45.931Z,87.29
2022-12-23T06:50:12.554Z,87.01
2022-12-23T06:52:39.455Z,86.79
2022-12-23T06:55:06.478Z,87.32
2022-12-23T06:57:33.208Z,87.27
2022-12-23T06:59:59.792Z,87.73
2022-12-23T07:02:26.558Z,87.00
2022-12-23T07:04:53.265Z,87.57
2022-12-23T07:07:19.961Z,88.16
2022-12-23T07:09:46.702Z,87.52
2022-12-23T07:12:13.456Z,88.08
2022-12-23T07:14:40.054Z,87.49
2022-12-23T07:17:06.961Z,88.78
2022-12-23T07:19:34.141Z,88.55
2022-12-23T07:22:00.813Z,88.32
2022-12-23T07:24:27.497Z,88.91
2022-12-23T07:26:55.828Z,89.80
2022-12-23T07:29:22.461Z,89.60
2022-12-23T07:31:49.495Z,90.44
2022-12-23T07:34:16.229Z,90.52
2022-12-23T07:36:42.881Z,91.13
2022-12-23T07:39:09.778Z,90.82
2022-12-23T07:41:36.509Z,90.55
2022-12-23T07:44:07.193Z,90.92
2022-12-23T07:46:33.920Z,91.86
2022-12-23T07:49:00.583Z,92.62
2022-12-23T07:51:27.236Z,93.03
2022-12-23T07:53:53.851Z,93.24
2022-12-23T07:56:20.848Z,94.19
2022-12-23T07:58:51.717Z,93.97
2022-12-23T08:01:19.219Z,94.06
2022-12-23T08:03:46.895Z,93.96
2022-12-23T08:06:15.236Z,93.44
2022-12-23T08:08:44.550Z,92.83
2022-12-23T08:11:13.021Z,93.77
2022-12-23T08:13:41.501Z,94.26
2022-12-23T08:16:09.764Z,93.74
2022-12-23T08:18:39.174Z,94.14
2022-12-23T08:21:14.628Z,93.22
2022-12-23T08:23:42.091Z,93.44
2022-12-23T08:26:21.448Z,93.46
2022-12-23T08:28:49.577Z,92.59
2022-12-23T08:31:25.640Z,95.19
2022-12-23T08:33:55.098Z,95.98
2022-12-23T08:36:33.257Z,95.33
2022-12-23T08:39:03.462Z,94.77
2022-12-23T08:41:33.444Z,95.21
2022-12-23T08:44:00.337Z,94.89
2022-12-23T08:46:27.219Z,95.98
2022-12-23T08:48:55.062Z,95.60
2022-12-23T08:51:23.588Z,96.11
2022-12-23T08:53:56.256Z,95.72
2022-12-23T08:56:32.913Z,95.12
2022-12-23T08:59:00.603Z,94.77
2022-12-23T09:01:29.905Z,93.71
2022-12-23T09:03:56.855Z,94.11
2022-12-23T09:06:30.390Z,94.09
2022-12-23T09:08:58.160Z,94.62
2022-12-23T09:11:27.078Z,93.21
2022-12-23T09:13:54.753Z,93.11
2022-12-23T09:16:21.953Z,93.19
2022-12-23T09:18:48.820Z,92.76
2022-12-23T09:21:19.547Z,92.56
2022-12-23T09:23:47.108Z,93.11
2022-12-23T09:26:22.854Z,94.37
2022-12-23T09:28:49.944Z,94.66
2022-12-23T09:31:17.103Z,93.61
2022-12-23T09:33:47.940Z,92.85
2022-12-23T09:36:14.998Z,93.08
2022-12-23T09:38:41.743Z,92.75
2022-12-23T09:41:29.950Z,92.63
2022-12-23T09:44:14.628Z,92.90
2022-12-23T09:47:05.707Z,93.50
2022-12-23T09:49:33.715Z,92.69
2022-12-23T09:52:05.697Z,93.04
2022-12-23T09:54:45.993Z,92.96
2022-12-23T09:57:58.678Z,93.03
2022-12-23T10:00:26.700Z,92.79
2022-12-23T10:03:28.342Z,92.95
2022-12-23T10:06:10.354Z,92.83
2022-12-23T10:08:42.200Z,92.28
2022-12-23T10:11:41.389Z,92.34
2022-12-23T10:14:20.491Z,95.76
2022-12-23T10:16:52.768Z,95.62
2022-12-23T10:19:29.884Z,95.41
2022-12-23T10:22:07.269Z,94.94
2022-12-23T10:24:40.840Z,94.69
2022-12-23T10:27:37.108Z,93.46
2022-12-23T10:30:34.357Z,92.20
2022-12-23T10:33:17.151Z,90.51
2022-12-23T10:35:53.359Z,88.60
2022-12-23T10:38:41.656Z,88.72
2022-12-23T10:41:39.221Z,89.06
2022-12-23T10:44:30.106Z,87.79
2022-12-23T10:47:33.231Z,88.19
2022-12-23T10:50:09.858Z,88.30
2022-12-23T10:52:40.049Z,87.30
2022-12-23T10:55:15.364Z,86.71
2022-12-23T10:57:42.075Z,84.37
2022-12-23T11:00:22.341Z,85.43
2022-12-23T11:03:04.300Z,84.14
2022-12-23T11:05:33.361Z,84.38
2022-12-23T11:08:01.155Z,85.11
2022-12-23T11:10:33.055Z,86.57
2022-12-23T11:13:00.660Z,84.73
2022-12-23T11:15:40.440Z,82.93
2022-12-23T11:18:14.091Z,82.63
2022-12-23T11:20:45.088Z,83.40
2022-12-23T11:23:33.038Z,83.88
2022-12-23T11:26:09.860Z,80.71
2022-12-23T11:28:40.698Z,80.21
2022-12-23T11:31:11.806Z,80.95
2022-12-23T11:33:52.041Z,81.72
2022-12-23T11:36:24.607Z,80.21
2022-12-23T11:39:33.302Z,79.11
2022-12-23T11:42:11.738Z,78.64
2022-12-23T11:44:43.191Z,78.97
2022-12-23T11:47:22.020Z,78.64
2022-12-23T11:49:54.253Z,80.12
2022-12-23T11:52:29.979Z,79.98
2022-12-23T11:54:59.454Z,77.93
2022-12-23T11:57:43.033Z,77.84
2022-12-23T12:00:21.025Z,79.21
2022-12-23T12:02:52.689Z,77.96
2022-12-23T12:05:23.095Z,78.18
2022-12-23T12:07:51.847Z,76.75
2022-12-23T12:10:25.255Z,77.68
2022-12-23T12:12:56.913Z,78.13
2022-12-23T12:15:53.423Z,77.22
2022-12-23T12:18:21.177Z,78.05
2022-12-23T12:20:53.809Z,77.40
2022-12-23T12:23:37.712Z,77.35
2022-12-23T12:26:24.431Z,76.27
2022-12-23T12:28:59.317Z,74.98
2022-12-23T12:31:34.068Z,75.20
2022-12-23T12:34:14.595Z,76.32
2022-12-23T12:36:50.763Z,76.53
2022-12-23T12:39:22.761Z,77.11
2022-12-23T12:42:00.189Z,77.16
2022-12-23T12:44:47.472Z,77.45
2022-12-23T12:47:53.929Z,78.04
2022-12-23T12:50:27.933Z,76.51
2022-12-23T12:52:59.618Z,76.00
2022-12-23T12:55:30.677Z,76.16
2022-12-23T12:57:57.675Z,75.47
2022-12-23T13:00:25.302Z,75.55
2022-12-23T13:03:12.134Z,74.62
2022-12-23T13:05:54.654Z,74.23
2022-12-23T13:08:46.235Z,73.94
2022-12-23T13:11:28.593Z,74.92
2022-12-23T13:14:40.181Z,76.12
2022-12-23T13:17:24.443Z,74.96
2022-12-23T13:20:09.657Z,74.96
2022-12-23T13:22:38.579Z,75.78
2022-12-23T13:25:11.256Z,74.31
2022-12-23T13:27:58.009Z,75.28
2022-12-23T13:30:32.076Z,75.43
2022-12-23T13:33:17.477Z,76.34
2022-12-23T13:36:06.569Z,76.01
2022-12-23T13:39:05.490Z,75.53
2022-12-23T13:41:48.925Z,75.47
2022-12-23T13:44:18.758Z,76.82
2022-12-23T13:47:00.561Z,76.45
2022-12-23T13:49:56.358Z,76.68
2022-12-23T13:52:44.297Z,75.39
2022-12-23T13:55:13.716Z,75.14
2022-12-23T13:58:09.608Z,74.67
2022-12-23T14:00:36.468Z,75.14
2022-12-23T14:03:03.398Z,75.16
2022-12-23T14:05:33.222Z,75.20
2022-12-23T14:08:02.513Z,75.83
2022-12-23T14:10:30.777Z,75.18
2022-12-23T14:13:07.458Z,74.96
2022-12-23T14:16:12.673Z,75.51
2022-12-23T14:19:10.423Z,77.19
2022-12-23T14:21:58.309Z,77.49
2022-12-23T14:25:02.818Z,78.37
2022-12-23T14:27:35.295Z,78.56
2022-12-23T14:30:32.969Z,78.11
2022-12-23T14:33:18.033Z,79.20
2022-12-23T14:35:44.701Z,79.61
2022-12-23T14:38:14.162Z,78.59
2022-12-23T14:40:43.807Z,79.15
2022-12-23T14:43:22.609Z,79.46
2022-12-23T14:45:51.567Z,79.96
2022-12-23T14:48:33.428Z,79.55
2022-12-23T14:51:09.527Z,79.55
2022-12-23T14:53:58.011Z,80.20
2022-12-23T14:56:40.350Z,80.40
2022-12-23T14:59:16.936Z,80.63
2022-12-23T15:02:02.794Z,80.70
2022-12-23T15:04:50.951Z,81.17
2022-12-23T15:07:34.398Z,82.00
2022-12-23T15:10:08.688Z,82.07
2022-12-23T15:12:42.126Z,81.98
2022-12-23T15:15:25.136Z,82.70
2022-12-23T15:18:12.313Z,81.87
2022-12-23T15:20:39.561Z,82.14
2022-12-23T15:23:12.080Z,82.89
2022-12-23T15:25:43.698Z,83.01
2022-12-23T15:28:18.356Z,83.06
2022-12-23T15:30:56.747Z,84.55
2022-12-23T15:34:01.332Z,84.67
2022-12-23T15:36:14.976Z,84.93
2022-12-23T15:38:42.056Z,84.40
2022-12-23T15:41:17.072Z,84.66
2022-12-23T15:43:44.872Z,85.27
2022-12-23T15:46:23.410Z,86.99
2022-12-23T15:48:54.174Z,87.33
2022-12-23T15:52:06.246Z,87.71
2022-12-23T15:54:34.935Z,88.02
2022-12-23T15:57:03.402Z,88.13
2022-12-23T15:59:39.577Z,88.04
2022-12-23T16:02:58.479Z,87.16
2022-12-23T16:05:05.539Z,87.58
2022-12-23T16:07:35.757Z,88.05
2022-12-23T16:10:11.693Z,88.88
2022-12-23T16:12:40.091Z,89.63
2022-12-23T16:15:32.393Z,89.23
2022-12-23T16:18:34.047Z,89.23
2022-12-23T16:21:04.041Z,89.08
2022-12-23T16:23:35.130Z,89.51
2022-12-23T16:26:02.952Z,89.26
2022-12-23T16:28:42.762Z,88.67
2022-12-23T16:31:10.753Z,89.20
2022-12-23T16:33:42.481Z,87.73
2022-12-23T16:36:27.351Z,86.86
2022-12-23T16:39:23.921Z,87.51
2022-12-23T16:41:50.896Z,87.92
2022-12-23T16:44:17.549Z,88.08
2022-12-23T16:46:48.571Z,88.01
2022-12-23T16:49:20.687Z,87.79
2022-12-23T16:51:47.699Z,87.15
2022-12-23T16:54:17.698Z,87.52
2022-12-23T16:56:46.831Z,88.14
2022-12-23T16:59:14.146Z,88.03
2022-12-23T17:01:44.765Z,88.29
2022-12-23T17:04:12.435Z,88.10
2022-12-23T17:06:40.733Z,88.08
2022-12-23T17:09:10.172Z,87.89
2022-12-23T17:11:49.489Z,87.76
2022-12-23T17:14:16.167Z,87.94
2022-12-23T17:16:43.898Z,87.78
2022-12-23T17:19:11.474Z,87.82
2022-12-23T17:21:39.769Z,87.38
2022-12-23T17:24:12.481Z,87.49
2022-12-23T17:26:39.974Z,87.67
2022-12-23T17:29:06.900Z,87.26
2022-12-23T17:31:34.654Z,86.98
2022-12-23T17:34:02.217Z,86.98
2022-12-23T17:36:29.454Z,87.40
2022-12-23T17:38:56.128Z,87.40
2022-12-23T17:41:31.414Z,87.17
2022-12-23T17:43:58.833Z,85.82
2022-12-23T17:46:26.883Z,86.52
2022-12-23T17:48:54.068Z,86.55
2022-12-23T17:51:22.639Z,87.19
2022-12-23T17:53:56.840Z,86.54
2022-12-23T17:56:25.106Z,86.54
2022-12-23T17:58:52.150Z,85.93
2022-12-23T18:01:26.482Z,86.93
2022-12-23T18:03:56.460Z,87.31
2022-12-23T18:06:24.760Z,87.75
2022-12-23T18:08:51.796Z,88.12
2022-12-23T18:11:22.648Z,87.99
2022-12-23T18:13:52.156Z,87.83
2022-12-23T18:16:18.915Z,87.54
2022-12-23T18:18:46.864Z,87.33
2022-12-23T18:21:20.344Z,85.53
2022-12-23T18:23:47.287Z,84.92
2022-12-23T18:26:17.494Z,85.47
2022-12-23T18:28:44.664Z,86.05
2022-12-23T18:31:20.996Z,87.33
2022-12-23T18:33:48.128Z,87.46
2022-12-23T18:36:29.149Z,87.95
2022-12-23T18:38:57.245Z,88.17
2022-12-23T18:41:25.344Z,86.35
2022-12-23T18:43:52.795Z,85.88
2022-12-23T18:46:22.975Z,86.50
2022-12-23T18:48:49.842Z,87.21
2022-12-23T18:51:18.023Z,87.84
2022-12-23T18:53:45.766Z,88.55
2022-12-23T18:56:19.144Z,87.58
2022-12-23T18:58:45.992Z,87.86
2022-12-23T19:01:14.113Z,87.18
2022-12-23T19:03:41.999Z,86.99
2022-12-23T19:06:11.867Z,86.78
2022-12-23T19:08:39.499Z,86.94
2022-12-23T19:11:18.042Z,87.13
2022-12-23T19:13:45.231Z,87.10
2022-12-23T19:16:17.272Z,87.61
2022-12-23T19:18:46.021Z,87.52
2022-12-23T19:21:12.870Z,87.33
2022-12-23T19:23:41.117Z,87.63
2022-12-23T19:26:13.379Z,89.88
2022-12-23T19:28:41.648Z,90.07
2022-12-23T19:31:09.208Z,88.86
2022-12-23T19:33:40.440Z,88.97
2022-12-23T19:36:11.544Z,87.54
2022-12-23T19:38:39.164Z,87.86
2022-12-23T19:41:07.442Z,88.19
2022-12-23T19:43:34.962Z,88.09
2022-12-23T19:46:04.643Z,88.46
2022-12-23T19:48:31.346Z,88.22
2022-12-23T19:50:58.983Z,88.48
2022-12-23T19:53:26.542Z,88.32
2022-12-23T19:56:02.412Z,88.57
2022-12-23T19:58:33.306Z,87.24
2022-12-23T20:01:11.973Z,87.01
2022-12-23T20:03:39.668Z,86.46
2022-12-23T20:06:08.143Z,85.94
2022-12-23T20:08:35.213Z,86.42
2022-12-23T20:11:04.153Z,86.46
2022-12-23T20:13:30.938Z,86.28
2022-12-23T20:15:57.933Z,87.17
2022-12-23T20:18:24.750Z,87.18
2022-12-23T20:20:51.593Z,87.69
2022-12-23T20:23:18.275Z,87.23
2022-12-23T20:25:45.397Z,87.44
2022-12-23T20:28:12.293Z,86.48
2022-12-23T20:30:39.038Z,85.51
2022-12-23T20:33:05.923Z,85.14
2022-12-23T20:35:32.530Z,85.40
2022-12-23T20:37:59.288Z,85.10
2022-12-23T20:40:25.911Z,85.89
2022-12-23T20:42:52.703Z,84.80
2022-12-23T20:45:20.928Z,84.51
2022-12-23T20:47:47.771Z,83.92
2022-12-23T20:50:14.724Z,85.17
2022-12-23T20:52:41.431Z,85.97
2022-12-23T20:55:08.495Z,86.60
2022-12-23T20:57:35.969Z,87.55
2022-12-23T21:00:05.469Z,87.55
2022-12-23T21:02:32.295Z,85.31
2022-12-23T21:04:58.866Z,84.90
2022-12-23T21:07:26.356Z,85.17
2022-12-23T21:09:52.926Z,86.02
2022-12-23T21:12:19.681Z,86.04
2022-12-23T21:14:46.397Z,86.48
2022-12-23T21:17:13.175Z,86.07
2022-12-23T21:19:39.783Z,85.17
2022-12-23T21:22:06.513Z,85.33
2022-12-23T21:24:33.118Z,84.05
2022-12-23T21:26:59.798Z,84.72
2022-12-23T21:29:26.736Z,85.59
2022-12-23T21:31:53.655Z,86.14
2022-12-23T21:34:20.590Z,85.23
2022-12-23T21:36:47.445Z,85.57
2022-12-23T21:39:16.133Z,85.78
2022-12-23T21:41:43.312Z,85.31
2022-12-23T21:44:11.705Z,84.78
2022-12-23T21:46:38.440Z,85.30
2022-12-23T21:49:05.222Z,85.81
2022-12-23T21:51:39.695Z,85.67
2022-12-23T21:54:07.720Z,86.29
2022-12-23T21:56:34.538Z,84.67
2022-12-23T21:59:03.513Z,84.32
2022-12-23T22:01:31.353Z,83.85
2022-12-23T22:03:58.542Z,84.64
2022-12-23T22:06:32.003Z,83.90
2022-12-23T22:08:59.878Z,84.41
2022-12-23T22:11:29.616Z,85.09
2022-12-23T22:13:58.199Z,85.03
2022-12-23T22:16:26.870Z,84.53
2022-12-23T22:18:55.202Z,85.09
2022-12-23T22:21:24.703Z,84.87
2022-12-23T22:23:52.754Z,85.92
2022-12-23T22:26:25.363Z,86.39
2022-12-23T22:28:59.095Z,86.12
2022-12-23T22:31:47.599Z,85.08
2022-12-23T22:34:17.395Z,83.49
2022-12-23T22:36:44.844Z,85.28
2022-12-23T22:39:19.968Z,86.76
2022-12-23T22:41:48.844Z,84.87
2022-12-23T22:44:16.288Z,84.03
2022-12-23T22:46:43.369Z,85.44
2022-12-23T22:49:13.961Z,85.93
2022-12-23T22:51:42.571Z,86.53
2022-12-23T22:54:10.063Z,86.00
2022-12-23T22:56:37.570Z,85.55
2022-12-23T22:59:04.789Z,85.22
2022-12-23T23:01:34.087Z,85.53
2022-12-23T23:04:03.000Z,86.39
2022-12-23T23:06:37.813Z,84.59
2022-12-23T23:09:11.608Z,84.53
2022-12-23T23:11:38.644Z,84.42
2022-12-23T23:14:05.523Z,85.76
2022-12-23T23:16:33.333Z,85.92
2022-12-23T23:19:00.328Z,85.63
2022-12-23T23:21:27.287Z,84.24
2022-12-23T23:23:54.016Z,83.24
2022-12-23T23:26:21.160Z,84.63
2022-12-23T23:28:48.341Z,85.54
2022-12-23T23:34:02.031Z,86.42
2022-12-23T23:36:28.741Z,86.12
2022-12-23T23:38:55.683Z,86.60
2022-12-23T23:41:23.556Z,88.17
2022-12-23T23:43:51.600Z,86.57
2022-12-23T23:46:18.364Z,86.18
2022-12-23T23:48:45.172Z,86.14
2022-12-23T23:51:12.728Z,86.39
2022-12-23T23:53:40.201Z,86.77
2022-12-23T23:56:07.865Z,88.29
2022-12-23T23:58:36.241Z,88.83
